Time;durP1;ratioP1;P1;durP2;ratioP2;P2;SDS_P1;SDS_P2;PMS_P1;PMS_P2;Temp;Humidity;BMP_temperature;BMP_pressure;BME280_temperature;BME280_humidity;BME280_pressure;Samples;Min_cycle;Max_cycle;Signal;HPM_P1;HPM_P2
2022/12/20 00:01:39;;;;;;;2.77;2.57;;;;;;;1.12;64.02;96254.34;2618112;47;20183;-81
2022/12/20 00:04:08;;;;;;;6.43;3.43;;;;;;;-0.53;66.92;96235.09;2617837;54;20166;-81
2022/12/20 00:06:40;;;;;;;3.67;2.70;;;;;;;-0.80;69.00;96251.22;2618108;47;20189;-80
2022/12/20 00:09:11;;;;;;;5.50;2.37;;;;;;;-0.53;70.20;96257.34;2618058;47;20171;-81
2022/12/20 00:11:41;;;;;;;3.07;2.17;;;;;;;0.73;66.82;96258.38;2618525;54;20165;-81
2022/12/20 00:14:10;;;;;;;1.67;1.53;;;;;;;1.64;62.99;96259.19;2617975;54;20145;-80
2022/12/20 00:16:39;;;;;;;4.17;2.07;;;;;;;2.06;60.90;96261.53;2618690;47;20145;-82
2022/12/20 00:19:09;;;;;;;5.50;2.67;;;;;;;2.46;61.89;96264.41;2619091;39;20531;-81
2022/12/20 00:21:40;;;;;;;2.53;1.90;;;;;;;2.24;60.14;96265.22;2620162;47;20311;-82
2022/12/20 00:24:09;;;;;;;2.03;1.63;;;;;;;1.52;61.79;96260.88;2620792;54;20253;-81
2022/12/20 00:26:39;;;;;;;2.73;2.10;;;;;;;1.09;62.76;96267.38;2620425;54;20176;-81
2022/12/20 00:29:08;;;;;;;3.30;2.93;;;;;;;0.64;63.78;96265.97;2619955;47;20248;-83
2022/12/20 00:31:37;;;;;;;2.30;1.90;;;;;;;0.40;64.97;96266.44;2618983;47;20201;-81
2022/12/20 00:34:06;;;;;;;3.57;2.27;;;;;;;-0.70;67.83;96257.81;2618057;54;20152;-84
2022/12/20 00:36:35;;;;;;;8.47;3.70;;;;;;;-0.79;69.19;96256.22;2618141;47;20156;-81
2022/12/20 00:39:07;;;;;;;2.03;1.93;;;;;;;-1.07;70.53;96258.94;2618088;47;20690;-81
2022/12/20 00:41:36;;;;;;;1.63;1.60;;;;;;;-0.68;69.71;96251.69;2617722;54;20697;-80
2022/12/20 00:44:06;;;;;;;0.97;0.97;;;;;;;0.26;68.03;96246.31;2617628;54;20179;-82
2022/12/20 00:46:35;;;;;;;4.23;2.27;;;;;;;0.92;63.83;96253.22;2617523;47;20695;-82
2022/12/20 00:49:06;;;;;;;1.23;1.23;;;;;;;0.09;66.32;96242.53;2617709;47;20152;-81
2022/12/20 00:51:35;;;;;;;1.77;1.63;;;;;;;0.60;65.36;96248.09;2617781;47;20157;-82
2022/12/20 00:54:06;;;;;;;2.20;2.10;;;;;;;0.50;64.91;96259.03;2617761;54;20153;-82
2022/12/20 00:56:34;;;;;;;1.57;1.47;;;;;;;0.59;64.28;96244.56;2617907;47;20160;-81
2022/12/20 00:59:03;;;;;;;6.63;3.53;;;;;;;-0.19;65.55;96269.09;2618925;47;20145;-81
2022/12/20 01:01:34;;;;;;;1.30;1.30;;;;;;;-0.11;68.40;96272.69;2618042;54;20160;-81
2022/12/20 01:04:03;;;;;;;1.80;1.70;;;;;;;-0.83;67.59;96246.75;2617793;54;20152;-81
2022/12/20 01:06:33;;;;;;;3.17;2.90;;;;;;;-1.06;69.25;96260.44;2618543;54;20191;-81
2022/12/20 01:09:02;;;;;;;1.67;1.63;;;;;;;-1.45;70.46;96255.78;2622001;54;20141;-81
2022/12/20 01:11:35;;;;;;;1.33;1.33;;;;;;;-1.21;70.30;96260.28;2618566;47;20294;-82
2022/12/20 01:14:08;;;;;;;3.27;2.53;;;;;;;-1.57;70.84;96260.84;2618496;54;20193;-81
2022/12/20 01:16:40;;;;;;;2.57;2.33;;;;;;;-1.04;69.41;96238.41;2618529;47;20147;-81
2022/12/20 01:19:09;;;;;;;1.60;1.60;;;;;;;-1.38;70.41;96237.72;2618863;39;20903;-82
2022/12/20 01:21:43;;;;;;;1.73;1.63;;;;;;;-1.63;70.86;96232.41;2618649;47;20677;-81
2022/12/20 01:24:12;;;;;;;1.30;1.20;;;;;;;-1.62;71.54;96241.50;2618706;47;20680;-80
2022/12/20 01:26:43;;;;;;;1.87;1.73;;;;;;;-1.17;71.08;96242.00;2618641;54;20160;-81
2022/12/20 01:29:12;;;;;;;2.37;1.97;;;;;;;-1.57;70.44;96249.72;2618543;47;20160;-81
2022/12/20 01:31:41;;;;;;;2.80;2.67;;;;;;;-1.83;71.74;96231.09;2618699;47;20158;-82
2022/12/20 01:34:10;;;;;;;4.43;3.03;;;;;;;-1.98;72.11;96225.34;2618411;54;20162;-79
2022/12/20 01:36:41;;;;;;;2.53;2.33;;;;;;;-2.00;72.21;96202.94;2618283;47;20153;-80
2022/12/20 01:39:12;;;;;;;1.50;1.50;;;;;;;-1.65;73.08;96221.13;2618413;47;20145;-81
2022/12/20 01:41:46;;;;;;;0.90;0.90;;;;;;;-1.22;72.49;96217.09;2618315;54;20155;-81
2022/12/20 01:44:45;;;;;;;3.70;3.37;;;;;;;-1.72;70.78;96224.56;2618893;47;20176;-81
2022/12/20 01:47:15;;;;;;;1.33;1.33;;;;;;;-1.65;73.09;96218.34;2624504;31;20791;-81
2022/12/20 01:49:49;;;;;;;2.30;1.83;;;;;;;-1.66;71.38;96211.28;2626198;47;20156;-81
2022/12/20 01:52:20;;;;;;;2.43;2.23;;;;;;;-1.93;71.47;96212.66;2619705;54;20150;-81
2022/12/20 01:54:54;;;;;;;2.13;2.03;;;;;;;-2.03;72.80;96212.31;2618447;39;20690;-81
2022/12/20 01:57:31;;;;;;;1.60;1.10;;;;;;;-2.21;73.53;96205.66;2618574;54;20246;-81
2022/12/20 02:00:00;;;;;;;1.73;1.63;;;;;;;-1.98;72.79;96205.91;2618057;47;20157;-81
2022/12/20 02:02:29;;;;;;;1.40;1.40;;;;;;;-1.96;73.40;96208.91;2619569;47;20145;-82
2022/12/20 02:04:58;;;;;;;1.43;1.33;;;;;;;-1.70;71.63;96202.53;2619811;54;20200;-81
2022/12/20 02:07:30;;;;;;;1.60;1.60;;;;;;;-2.03;72.01;96192.16;2619744;46;20247;-81
2022/12/20 02:10:00;;;;;;;2.50;1.63;;;;;;;-2.04;72.64;96205.28;2620053;54;20151;-81
2022/12/20 02:12:37;;;;;;;0.83;0.83;;;;;;;-1.77;73.64;96199.66;2619240;54;20162;-80
2022/12/20 02:15:28;;;;;;;1.70;1.70;;;;;;;-1.44;70.98;96202.44;2618635;54;20159;-81
2022/12/20 02:18:09;;;;;;;5.30;1.30;;;;;;;-1.37;70.98;96205.84;2617987;49;20154;-81
2022/12/20 02:21:10;;;;;;;10.70;1.80;;;;;;;-0.26;67.67;96207.78;2618086;47;20250;-81
2022/12/20 02:24:08;;;;;;;2.17;2.07;;;;;;;-0.18;66.59;96180.75;2618160;54;20161;-83
2022/12/20 02:27:04;;;;;;;10.73;2.80;;;;;;;0.79;63.26;96208.75;2621100;54;20156;-81
2022/12/20 02:29:40;;;;;;;1.77;1.70;;;;;;;1.10;61.68;96209.50;2618681;54;20224;-82
2022/12/20 02:32:19;;;;;;;4.87;2.13;;;;;;;1.48;61.17;96201.13;2618496;47;20239;-81
2022/12/20 02:34:48;;;;;;;2.33;2.13;;;;;;;1.24;60.11;96192.00;2618466;47;20171;-81
2022/12/20 02:37:17;;;;;;;1.93;1.80;;;;;;;0.75;61.66;96216.72;2618251;47;20240;-81
2022/12/20 02:39:47;;;;;;;2.07;1.90;;;;;;;0.88;60.76;96195.00;2618170;54;20152;-82
2022/12/20 02:42:20;;;;;;;3.03;2.27;;;;;;;0.03;62.86;96202.94;2618126;47;20184;-80
2022/12/20 02:47:41;;;;;;;2.77;2.47;;;;;;;-0.75;65.31;96200.25;2618101;47;20147;-81
2022/12/20 02:50:11;;;;;;;3.57;1.37;;;;;;;-0.51;65.97;96194.28;2618128;47;20144;-81
2022/12/20 02:52:41;;;;;;;2.07;2.07;;;;;;;-0.73;65.72;96183.75;2618138;54;20158;-82
2022/12/20 02:55:10;;;;;;;1.63;1.53;;;;;;;-0.19;65.09;96196.72;2617806;54;20660;-81
2022/12/20 02:57:45;;;;;;;4.13;2.63;;;;;;;0.15;64.34;96196.47;2618379;47;20149;-81
2022/12/20 03:00:17;;;;;;;1.50;1.47;;;;;;;-0.08;63.87;96192.84;2617893;47;20152;-80
2022/12/20 03:05:32;;;;;;;1.50;1.50;;;;;;;-0.84;65.79;96173.69;2618522;54;20152;-81
2022/12/20 03:08:01;;;;;;;3.03;2.27;;;;;;;-1.11;66.32;96189.78;2620116;54;20194;-81
2022/12/20 03:10:29;;;;;;;3.10;2.97;;;;;;;-1.91;69.30;96185.06;2620414;47;20183;-80
2022/12/20 03:12:58;;;;;;;1.00;1.00;;;;;;;-2.13;70.38;96185.56;2619313;47;20225;-80
2022/12/20 03:15:27;;;;;;;3.73;2.90;;;;;;;-2.51;71.54;96186.56;2618236;54;20149;-80
2022/12/20 03:17:58;;;;;;;2.37;2.23;;;;;;;-2.72;73.05;96179.41;2618261;54;20149;-81
2022/12/20 03:20:27;;;;;;;1.07;1.07;;;;;;;-2.56;72.92;96151.34;2618173;47;20251;-81
2022/12/20 03:22:56;;;;;;;1.07;1.07;;;;;;;-1.92;71.04;96175.28;2617911;47;20183;-80
2022/12/20 03:25:24;;;;;;;1.70;1.60;;;;;;;-1.95;70.33;96168.00;2618199;54;20195;-81
2022/12/20 03:27:53;;;;;;;0.70;0.70;;;;;;;-1.91;70.64;96171.94;2617883;47;20140;-81
2022/12/20 03:30:22;;;;;;;1.87;1.77;;;;;;;-1.67;69.50;96184.06;2617717;54;20148;-81
2022/12/20 03:32:51;;;;;;;1.13;1.03;;;;;;;-1.11;67.90;96183.47;2618564;31;20673;-81
2022/12/20 03:35:22;;;;;;;2.37;1.63;;;;;;;-1.01;66.93;96184.47;2618006;54;20159;-81
2022/12/20 03:37:51;;;;;;;1.33;1.30;;;;;;;-0.80;66.81;96187.97;2617968;54;20145;-80
2022/12/20 03:40:20;;;;;;;1.53;1.53;;;;;;;-0.69;65.54;96161.16;2618080;54;20675;-81
2022/12/20 03:42:48;;;;;;;4.30;1.13;;;;;;;-0.76;64.96;96148.69;2618142;47;20157;-82
2022/12/20 03:45:17;;;;;;;17.33;1.63;;;;;;;-0.63;64.70;96181.97;2620751;47;20700;-81
2022/12/20 03:47:46;;;;;;;5.40;1.47;;;;;;;-0.76;65.17;96177.25;2618403;54;20252;-82
2022/12/20 03:50:14;;;;;;;2.27;2.03;;;;;;;-1.62;67.12;96136.69;2617991;54;20239;-82
2022/12/20 03:52:45;;;;;;;2.47;2.27;;;;;;;-1.70;67.79;96169.22;2618062;54;20171;-80
2022/12/20 03:55:14;;;;;;;4.43;2.20;;;;;;;-2.02;69.75;96165.88;2618923;54;20184;-82
2022/12/20 03:57:44;;;;;;;1.97;1.77;;;;;;;-2.07;70.72;96173.06;2619335;47;20682;-81
2022/12/20 04:00:14;;;;;;;1.97;1.87;;;;;;;-2.62;72.15;96167.38;2618416;47;20153;-82
2022/12/20 04:02:43;;;;;;;2.03;1.97;;;;;;;-2.28;72.20;96172.97;2617862;47;20161;-81
2022/12/20 04:05:11;;;;;;;3.00;1.73;;;;;;;-2.06;72.16;96174.56;2620346;54;20184;-82
2022/12/20 04:07:40;;;;;;;1.43;1.33;;;;;;;-1.15;68.69;96169.91;2620686;47;20675;-81
2022/12/20 04:10:13;;;;;;;2.00;2.00;;;;;;;0.15;65.95;96173.44;2620881;54;20166;-82
2022/12/20 04:12:41;;;;;;;7.83;2.80;;;;;;;0.31;62.44;96181.31;2619754;47;20324;-81
2022/12/20 04:15:11;;;;;;;2.23;1.97;;;;;;;0.36;62.93;96146.22;2618368;47;20667;-81
2022/12/20 04:17:39;;;;;;;0.80;0.80;;;;;;;1.05;61.96;96167.28;2619379;39;20553;-82
2022/12/20 04:20:20;;;;;;;3.47;3.27;;;;;;;2.39;60.82;96154.06;2623966;47;20145;-81
2022/12/20 04:22:49;;;;;;;3.33;3.20;;;;;;;2.41;55.82;96159.09;2619952;54;20179;-81
2022/12/20 04:25:23;;;;;;;3.03;2.83;;;;;;;4.18;58.81;96166.88;2618341;54;20160;-81
2022/12/20 04:27:52;;;;;;;2.07;2.00;;;;;;;3.85;53.08;96168.38;2618135;47;20168;-81
2022/12/20 04:30:20;;;;;;;5.83;2.90;;;;;;;3.08;52.33;96156.41;2618393;54;20145;-81
2022/12/20 04:32:53;;;;;;;2.80;2.40;;;;;;;2.39;54.14;96156.88;2618197;47;20152;-81
2022/12/20 04:35:22;;;;;;;7.60;2.43;;;;;;;1.29;56.21;96154.06;2617982;47;20154;-82
2022/12/20 04:37:50;;;;;;;3.07;2.90;;;;;;;0.19;60.42;96162.69;2618356;47;20153;-81
2022/12/20 04:40:22;;;;;;;2.30;2.20;;;;;;;0.28;60.72;96159.38;2618469;47;20161;-81
2022/12/20 04:42:50;;;;;;;2.53;2.40;;;;;;;1.80;64.12;96153.75;2619158;54;20169;-82
2022/12/20 04:45:19;;;;;;;2.27;1.57;;;;;;;2.96;60.37;96166.59;2619707;54;20141;-82
2022/12/20 04:47:48;;;;;;;3.53;3.03;;;;;;;4.28;52.43;96125.63;2619637;47;20169;-81
2022/12/20 04:50:17;;;;;;;3.90;3.03;;;;;;;4.45;60.23;96149.34;2619844;39;20980;-81
2022/12/20 04:55:30;;;;;;;4.67;3.10;;;;;;;4.80;50.68;96144.34;2619273;47;20180;-81
2022/12/20 04:57:59;;;;;;;3.10;2.90;;;;;;;5.67;51.78;96160.16;2618928;47;20164;-82
2022/12/20 05:00:27;;;;;;;4.13;3.83;;;;;;;4.76;46.34;96155.28;2619038;54;20170;-82
2022/12/20 05:02:56;;;;;;;3.67;3.27;;;;;;;3.43;47.72;96143.97;2620702;47;20195;-81
2022/12/20 05:05:25;;;;;;;3.90;3.50;;;;;;;3.08;49.05;96151.56;2620717;47;20184;-81
2022/12/20 05:07:54;;;;;;;4.40;4.13;;;;;;;3.44;51.47;96150.31;2619256;54;20159;-81
2022/12/20 05:10:23;;;;;;;8.17;6.67;;;;;;;4.81;58.78;96143.03;2618523;47;20153;-83
2022/12/20 05:12:54;;;;;;;4.77;4.13;;;;;;;4.64;49.22;96155.81;2618728;47;20168;-81
2022/12/20 05:15:23;;;;;;;6.17;5.57;;;;;;;5.20;48.34;96158.72;2618627;47;20698;-80
2022/12/20 05:17:51;;;;;;;10.03;4.13;;;;;;;3.14;50.14;96137.34;2618751;47;20236;-80
2022/12/20 05:20:20;;;;;;;5.40;5.00;;;;;;;3.78;47.62;96129.97;2618562;54;20248;-81
2022/12/20 05:28:13;;;;;;;5.43;3.80;;;;;;;4.92;51.07;96140.41;2619229;46;20149;-81
2022/12/20 05:30:42;;;;;;;4.50;2.57;;;;;;;6.51;55.57;96158.56;2618888;54;20161;-80
2022/12/20 05:33:11;;;;;;;4.47;2.60;;;;;;;7.58;53.31;96154.00;2618816;54;20149;-81
2022/12/20 05:35:40;;;;;;;4.30;2.83;;;;;;;7.97;51.93;96162.94;2619200;54;20152;-80
2022/12/20 05:38:09;;;;;;;8.40;4.67;;;;;;;8.62;51.56;96160.78;2619815;54;20148;-84
2022/12/20 05:40:37;;;;;;;4.17;3.93;;;;;;;7.82;44.15;96144.34;2619453;47;20153;-80
2022/12/20 05:43:06;;;;;;;13.57;5.50;;;;;;;7.49;44.21;96101.25;2619295;47;20169;-82
2022/12/20 05:45:38;;;;;;;4.00;3.03;;;;;;;7.37;55.04;96166.00;2620490;39;20555;-84
2022/12/20 05:48:08;;;;;;;4.87;3.80;;;;;;;5.84;44.38;96161.38;2620106;46;20153;-83
2022/12/20 05:50:37;;;;;;;5.13;4.73;;;;;;;5.25;44.13;96166.13;2618580;54;20195;-84
2022/12/20 05:53:05;;;;;;;3.50;3.30;;;;;;;6.15;50.67;96167.19;2619069;54;20730;-85
2022/12/20 05:55:34;;;;;;;4.47;4.07;;;;;;;7.45;49.62;96160.91;2618915;47;20226;-85
2022/12/20 05:58:03;;;;;;;3.83;3.63;;;;;;;7.52;40.95;96142.31;2618440;54;20161;-84
2022/12/20 06:00:32;;;;;;;5.33;4.87;;;;;;;7.96;52.02;96144.53;2618339;47;20153;-85
2022/12/20 06:03:04;;;;;;;4.67;3.60;;;;;;;8.26;43.09;96174.03;2618456;39;20250;-81
2022/12/20 06:05:32;;;;;;;7.70;3.87;;;;;;;7.81;46.51;96176.72;2616885;47;20231;-85
2022/12/20 06:08:02;;;;;;;6.20;5.60;;;;;;;8.25;43.66;96172.53;2618595;54;20148;-84
2022/12/20 06:10:33;;;;;;;10.47;3.73;;;;;;;8.72;49.53;96181.22;2618582;54;20180;-84
2022/12/20 06:13:05;;;;;;;5.37;4.53;;;;;;;8.73;43.79;96160.84;2618440;47;20143;-85
2022/12/20 06:15:34;;;;;;;6.53;5.13;;;;;;;4.79;42.48;96107.13;2619963;47;20145;-82
2022/12/20 06:18:06;;;;;;;3.33;2.63;;;;;;;6.06;57.22;96089.91;2620347;54;20145;-83
2022/12/20 06:20:35;;;;;;;4.73;3.93;;;;;;;5.19;44.83;96167.75;2620913;54;20153;-84
2022/12/20 06:23:04;;;;;;;4.27;3.87;;;;;;;5.67;45.70;96177.03;2621434;54;20157;-82
2022/12/20 06:25:33;;;;;;;5.80;5.50;;;;;;;3.57;47.18;96175.94;2617712;46;20165;-82
2022/12/20 06:28:02;;;;;;;6.20;5.07;;;;;;;2.99;51.40;96168.25;2618183;47;20655;-84
2022/12/20 06:30:30;;;;;;;3.23;2.90;;;;;;;5.07;51.19;96181.56;2621494;54;20156;-85
2022/12/20 06:33:00;;;;;;;4.37;4.07;;;;;;;5.49;46.86;96150.34;2620047;54;20173;-85
2022/12/20 06:35:32;;;;;;;4.67;3.93;;;;;;;3.38;48.01;96166.63;2619700;54;20153;-83
2022/12/20 06:38:03;;;;;;;17.40;11.35;;;;;;;2.98;50.41;96158.38;2619748;47;21255;-82
2022/12/20 06:40:32;;;;;;;3.57;3.30;;;;;;;3.20;50.28;96174.97;2620092;47;20145;-84
2022/12/20 06:43:01;;;;;;;5.47;4.17;;;;;;;3.82;51.08;96173.09;2619451;54;20153;-85
2022/12/20 06:45:29;;;;;;;10.30;7.60;;;;;;;3.58;49.15;96173.88;2618564;47;20153;-82
2022/12/20 06:47:59;;;;;;;5.73;5.33;;;;;;;3.28;51.20;96163.69;2621905;47;20164;-81
2022/12/20 06:50:31;;;;;;;4.20;3.80;;;;;;;3.12;53.89;96145.56;2626933;54;20164;-84
2022/12/20 06:53:01;;;;;;;3.77;3.57;;;;;;;3.77;51.24;96156.53;2628174;54;20168;-84
2022/12/20 06:55:29;;;;;;;5.07;2.87;;;;;;;4.19;52.47;96153.63;2617733;47;20157;-83
2022/12/20 06:57:58;;;;;;;4.87;4.57;;;;;;;4.67;48.70;96162.31;2617164;54;20183;-85
2022/12/20 07:00:27;;;;;;;5.93;3.00;;;;;;;4.52;51.56;96142.88;2618394;54;20149;-84
2022/12/20 07:02:56;;;;;;;4.17;3.90;;;;;;;4.89;49.00;96147.22;2619130;54;20690;-84
2022/12/20 07:05:25;;;;;;;2.97;2.77;;;;;;;3.60;50.31;96134.09;2618587;54;20199;-84
2022/12/20 07:07:56;;;;;;;10.10;4.40;;;;;;;4.26;50.09;96149.97;2618330;47;20152;-84
2022/12/20 07:10:25;;;;;;;11.13;3.20;;;;;;;3.43;51.60;96132.75;2618802;47;20148;-84
2022/12/20 07:12:54;;;;;;;1.47;1.47;;;;;;;4.10;52.58;96143.06;2619757;39;20543;-85
2022/12/20 07:15:23;;;;;;;3.17;2.93;;;;;;;4.45;50.62;96124.09;2620308;54;20152;-86
2022/12/20 07:17:52;;;;;;;4.97;4.53;;;;;;;4.84;47.31;96139.81;2620632;54;20187;-84
2022/12/20 07:20:21;;;;;;;3.23;3.00;;;;;;;3.31;50.03;96133.81;2623669;54;20252;-83
2022/12/20 07:22:50;;;;;;;1.87;1.77;;;;;;;2.38;52.24;96144.19;2623422;54;20203;-84
2022/12/20 07:25:22;;;;;;;2.33;2.13;;;;;;;3.93;68.03;96144.56;2619297;54;20159;-85
2022/12/20 07:27:52;;;;;;;3.70;3.17;;;;;;;3.62;48.38;96109.03;2618711;47;20148;-85
2022/12/20 07:30:22;;;;;;;2.40;2.27;;;;;;;2.09;53.06;96121.41;2618100;47;20149;-84
2022/12/20 07:32:51;;;;;;;2.47;2.27;;;;;;;2.48;61.55;96135.94;2618366;47;20161;-85
2022/12/20 07:35:20;;;;;;;2.80;2.60;;;;;;;2.44;50.44;96136.34;2618211;54;20149;-85
2022/12/20 07:37:48;;;;;;;6.77;3.63;;;;;;;2.92;50.12;96132.66;2618991;47;20154;-85
2022/12/20 07:40:17;;;;;;;3.03;2.23;;;;;;;2.44;51.49;96135.59;2621880;54;20152;-86
2022/12/20 07:42:49;;;;;;;4.07;3.43;;;;;;;1.87;52.05;96130.66;2618806;54;20236;-84
2022/12/20 07:45:18;;;;;;;1.47;1.43;;;;;;;1.66;54.48;96136.47;2618568;47;20153;-84
2022/12/20 07:47:47;;;;;;;2.83;2.63;;;;;;;1.28;53.21;96128.19;2618203;47;20144;-84
2022/12/20 07:50:16;;;;;;;2.37;2.17;;;;;;;2.41;51.40;96103.19;2618135;54;20152;-85
2022/12/20 07:52:48;;;;;;;2.80;2.60;;;;;;;3.39;49.50;96132.44;2617973;47;20149;-84
2022/12/20 07:55:18;;;;;;;3.03;2.83;;;;;;;2.78;49.22;96090.22;2617899;54;20203;-85
2022/12/20 07:57:53;;;;;;;2.53;2.20;;;;;;;2.66;49.08;96129.09;2617469;47;20229;-85
2022/12/20 08:00:25;;;;;;;3.67;3.47;;;;;;;2.93;50.03;96089.34;2618672;47;20685;-84
2022/12/20 08:02:58;;;;;;;4.03;2.37;;;;;;;3.43;48.11;96129.22;2619146;54;20686;-85
2022/12/20 08:05:26;;;;;;;2.47;2.27;;;;;;;3.03;50.51;96124.53;2618481;47;20206;-87
2022/12/20 08:07:58;;;;;;;2.27;2.07;;;;;;;3.21;48.92;96119.72;2618617;54;20165;-84
2022/12/20 08:10:28;;;;;;;1.60;1.50;;;;;;;4.88;48.63;96123.28;2618485;47;20145;-83
2022/12/20 08:13:02;;;;;;;4.00;2.47;;;;;;;5.75;44.87;96117.09;2617963;47;20153;-84
2022/12/20 08:15:31;;;;;;;4.53;3.37;;;;;;;7.25;49.96;96114.41;2618370;47;20155;-85
2022/12/20 08:18:00;;;;;;;3.93;3.53;;;;;;;5.74;40.16;96051.00;2617490;47;20168;-86
2022/12/20 08:20:29;;;;;;;3.97;2.57;;;;;;;3.83;46.56;96120.56;2615799;47;20161;-84
2022/12/20 08:22:58;;;;;;;2.77;2.57;;;;;;;3.52;45.95;96112.50;2618777;54;20172;-84
2022/12/20 08:25:27;;;;;;;1.47;1.47;;;;;;;5.06;45.69;96115.50;2618938;54;20157;-85
2022/12/20 08:27:55;;;;;;;4.73;4.27;;;;;;;5.10;43.58;96112.25;2618812;47;20164;-83
2022/12/20 08:30:26;;;;;;;3.67;2.93;;;;;;;3.74;45.57;96102.38;2618726;47;20195;-83
2022/12/20 08:32:55;;;;;;;1.97;1.87;;;;;;;3.27;45.51;96058.63;2618518;39;20648;-83
2022/12/20 08:35:24;;;;;;;2.33;2.23;;;;;;;3.88;47.71;96105.56;2618690;47;20141;-83
2022/12/20 08:37:54;;;;;;;3.50;2.57;;;;;;;5.68;54.24;96099.81;2618496;47;20679;-84
2022/12/20 08:40:23;;;;;;;2.70;2.60;;;;;;;4.73;42.73;96112.28;2621328;47;20145;-86
2022/12/20 08:42:52;;;;;;;2.17;2.07;;;;;;;5.91;46.08;96096.56;2622588;47;20157;-85
2022/12/20 08:45:20;;;;;;;4.47;3.70;;;;;;;3.52;44.60;96098.50;2620351;47;20255;-83
2022/12/20 08:47:52;;;;;;;2.50;2.33;;;;;;;2.36;48.41;96090.88;2618707;47;20153;-83
2022/12/20 08:50:21;;;;;;;4.07;3.73;;;;;;;2.69;48.24;96094.41;2619003;54;20172;-84
2022/12/20 08:52:49;;;;;;;2.60;2.40;;;;;;;3.36;46.76;96085.22;2620433;47;20275;-83
2022/12/20 08:55:18;;;;;;;4.17;1.60;;;;;;;3.09;48.39;96090.72;2620133;54;20210;-84
2022/12/20 08:57:47;;;;;;;2.30;2.17;;;;;;;4.46;48.84;96100.34;2619116;54;20279;-83
2022/12/20 09:00:17;;;;;;;2.60;2.50;;;;;;;4.65;44.37;96106.78;2617509;54;20241;-82
2022/12/20 09:02:47;;;;;;;2.00;1.90;;;;;;;5.82;42.12;96097.28;2617910;47;20153;-80
2022/12/20 09:05:19;;;;;;;3.17;1.90;;;;;;;5.74;43.73;96090.34;2618866;47;20183;-82
2022/12/20 09:07:48;;;;;;;3.30;3.07;;;;;;;5.43;46.36;96074.06;2618374;54;20153;-81
2022/12/20 09:10:17;;;;;;;2.63;2.13;;;;;;;5.63;40.53;96067.09;2618367;54;20145;-83
2022/12/20 09:12:46;;;;;;;3.33;3.07;;;;;;;5.06;42.19;96055.81;2618260;47;20754;-81
2022/12/20 09:15:14;;;;;;;3.40;3.10;;;;;;;3.76;44.32;96076.56;2618514;47;20149;-82
2022/12/20 09:17:43;;;;;;;2.57;2.37;;;;;;;3.74;47.25;96079.94;2619086;47;20161;-82
2022/12/20 09:20:12;;;;;;;3.63;3.43;;;;;;;3.77;47.48;96064.03;2623523;39;20574;-83
2022/12/20 09:22:43;;;;;;;2.47;2.37;;;;;;;5.88;47.78;96068.88;2626272;54;20648;-82
2022/12/20 09:25:13;;;;;;;2.57;2.37;;;;;;;6.59;41.22;96065.50;2618186;47;20658;-84
2022/12/20 09:27:41;;;;;;;3.83;3.53;;;;;;;7.61;42.60;96059.75;2617844;47;20389;-83
2022/12/20 09:30:11;;;;;;;3.53;2.30;;;;;;;7.19;40.23;96054.09;2617980;39;20541;-83
2022/12/20 09:32:40;;;;;;;4.50;3.60;;;;;;;8.87;45.00;96056.47;2617991;39;20845;-84
2022/12/20 09:35:09;;;;;;;4.33;3.00;;;;;;;9.51;40.50;96053.22;2618366;54;20157;-85
2022/12/20 09:37:38;;;;;;;3.17;2.53;;;;;;;9.89;40.75;96034.88;2618678;47;20159;-82
2022/12/20 09:40:18;;;;;;;2.97;1.73;;;;;;;9.62;35.93;96035.47;2618153;54;20160;-84
2022/12/20 09:42:48;;;;;;;2.97;2.73;;;;;;;10.14;35.83;96042.66;2618962;47;20156;-84
2022/12/20 09:45:24;;;;;;;3.50;3.20;;;;;;;7.47;45.86;96027.81;2619397;39;20543;-81
2022/12/20 09:47:53;;;;;;;3.93;2.73;;;;;;;7.18;38.95;96028.00;2624230;47;20153;-83
2022/12/20 09:50:28;;;;;;;5.27;3.13;;;;;;;7.27;39.12;96032.84;2621657;47;20699;-82
2022/12/20 09:53:10;;;;;;;4.83;3.90;;;;;;;7.94;48.53;96022.34;2618962;53;20164;-82
2022/12/20 09:55:48;;;;;;;2.67;2.47;;;;;;;6.87;38.62;96028.03;2617379;46;20149;-82
2022/12/20 09:58:30;;;;;;;5.83;3.27;;;;;;;7.55;40.96;96017.06;2617598;54;20208;-83
2022/12/20 10:01:00;;;;;;;2.87;2.43;;;;;;;7.65;42.68;96011.34;2618397;54;20145;-82
2022/12/20 10:03:33;;;;;;;3.07;2.63;;;;;;;6.99;42.87;96017.59;2618413;47;20145;-84
2022/12/20 10:06:07;;;;;;;3.17;2.80;;;;;;;7.03;41.87;96003.78;2618361;47;20179;-82
2022/12/20 10:08:46;;;;;;;3.37;3.07;;;;;;;7.03;37.67;95998.16;2618467;54;20147;-82
2022/12/20 10:11:36;;;;;;;3.67;3.37;;;;;;;6.20;38.98;95995.28;2618117;54;20145;-83
2022/12/20 10:14:16;;;;;;;2.13;2.03;;;;;;;6.30;44.45;95965.03;2617438;47;20157;-83
2022/12/20 10:16:48;;;;;;;3.53;3.23;;;;;;;7.38;41.48;95978.59;2616994;54;20630;-81
2022/12/20 10:19:37;;;;;;;3.43;3.13;;;;;;;6.90;42.57;95969.75;2617989;54;20160;-85
2022/12/20 10:22:13;;;;;;;2.90;2.27;;;;;;;8.17;38.59;95963.91;2618781;47;20264;-84
2022/12/20 10:24:50;;;;;;;2.77;2.53;;;;;;;8.86;43.17;95947.63;2618742;39;20616;-86
2022/12/20 10:27:23;;;;;;;6.27;3.17;;;;;;;9.81;50.77;95955.94;2619590;46;20199;-85
2022/12/20 10:29:53;;;;;;;2.07;1.97;;;;;;;7.54;37.42;95936.63;2618945;47;20153;-80
2022/12/20 10:32:24;;;;;;;4.10;2.70;;;;;;;8.11;42.71;95931.75;2618929;47;20161;-82
2022/12/20 10:34:57;;;;;;;2.27;2.17;;;;;;;7.89;36.44;95921.91;2617468;54;20203;-83
2022/12/20 10:37:26;;;;;;;3.17;2.40;;;;;;;8.83;36.57;95929.81;2617820;47;20186;-82
2022/12/20 10:39:55;;;;;;;3.40;3.10;;;;;;;7.69;36.51;95918.53;2617257;47;20207;-81
2022/12/20 10:42:42;;;;;;;3.67;3.47;;;;;;;7.77;38.23;95917.00;2617781;54;20165;-81
2022/12/20 10:45:30;;;;;;;3.93;3.73;;;;;;;8.89;38.52;95912.47;2616315;54;20157;-81
2022/12/20 10:48:01;;;;;;;3.40;3.10;;;;;;;7.16;36.82;95914.44;2616661;47;20198;-81
2022/12/20 10:50:31;;;;;;;2.80;2.10;;;;;;;7.56;38.69;95902.19;2616734;47;20157;-81
2022/12/20 10:53:21;;;;;;;2.30;2.10;;;;;;;7.68;43.53;95900.16;2617326;54;20356;-85
2022/12/20 10:55:50;;;;;;;5.80;3.97;;;;;;;7.61;37.75;95887.03;2619579;54;20430;-86
2022/12/20 10:58:32;;;;;;;2.97;2.77;;;;;;;7.99;38.17;95891.50;2619414;54;20164;-85
2022/12/20 11:01:14;;;;;;;3.17;2.23;;;;;;;7.25;36.63;95891.78;2619229;54;20164;-85
2022/12/20 11:03:56;;;;;;;3.23;2.70;;;;;;;8.76;41.33;95896.91;2618665;47;20145;-86
2022/12/20 11:06:28;;;;;;;5.20;3.10;;;;;;;8.82;35.14;95890.88;2629464;47;20180;-83
2022/12/20 11:09:20;;;;;;;3.20;2.93;;;;;;;8.74;40.40;95885.50;2622007;47;20160;-83
2022/12/20 11:12:01;;;;;;;3.67;2.53;;;;;;;8.83;38.12;95876.13;2628441;54;20141;-89
2022/12/20 11:14:34;;;;;;;2.50;2.30;;;;;;;9.39;36.32;95834.75;2618149;54;20247;-89
2022/12/20 11:17:07;;;;;;;2.10;2.00;;;;;;;8.29;35.20;95881.34;2628451;47;20717;-89
2022/12/20 11:19:55;;;;;;;4.13;2.93;;;;;;;8.00;36.41;95856.31;2590764;47;20246;-86
2022/12/20 11:22:36;;;;;;;3.93;3.43;;;;;;;8.20;43.42;95880.09;2630994;54;20228;-88
2022/12/20 11:32:47;;;;;;;4.83;2.23;;;;;;;7.60;38.40;95852.44;2624011;46;20274;-87
2022/12/20 11:35:21;;;;;;;2.80;2.60;;;;;;;6.77;36.73;95847.13;2621681;47;20157;-81
2022/12/20 11:37:59;;;;;;;2.20;2.10;;;;;;;5.77;38.84;95853.00;2619776;54;20191;-81
2022/12/20 11:40:34;;;;;;;2.60;2.50;;;;;;;5.82;38.21;95852.69;2618166;47;20213;-82
2022/12/20 11:43:24;;;;;;;9.73;2.60;;;;;;;7.02;41.86;95847.38;2618185;54;20149;-82
2022/12/20 11:46:11;;;;;;;2.20;2.07;;;;;;;8.49;45.44;95838.13;2618657;54;20156;-81
2022/12/20 11:48:59;;;;;;;4.20;1.77;;;;;;;8.25;38.03;95694.81;2622984;47;20145;-82
2022/12/20 11:51:36;;;;;;;2.53;2.33;;;;;;;9.66;37.00;95825.63;2617293;47;20157;-83
2022/12/20 11:54:12;;;;;;;2.97;2.77;;;;;;;8.84;35.25;95820.38;2618042;47;20155;-83
2022/12/20 11:56:43;;;;;;;8.47;3.00;;;;;;;9.44;36.40;95827.97;2618288;54;20155;-84
2022/12/20 11:59:20;;;;;;;2.33;2.23;;;;;;;9.70;37.93;95806.78;2618385;47;20153;-88
2022/12/20 12:01:55;;;;;;;2.00;1.87;;;;;;;10.44;36.69;95831.19;2617941;54;20164;-82
2022/12/20 12:04:29;;;;;;;3.43;2.10;;;;;;;9.99;33.59;95817.50;2620129;47;20160;-88
2022/12/20 12:07:03;;;;;;;2.73;2.63;;;;;;;9.24;33.60;95821.94;2623549;39;20536;-85
2022/12/20 12:09:38;;;;;;;2.30;2.10;;;;;;;10.31;40.17;95824.19;2621687;47;20152;-87
2022/12/20 12:12:15;;;;;;;3.37;3.17;;;;;;;10.45;35.18;95810.75;2620048;47;20148;-77
2022/12/20 12:14:51;;;;;;;4.40;1.87;;;;;;;10.41;33.12;95816.19;2618066;47;20156;-84
2022/12/20 12:17:33;;;;;;;2.57;2.37;;;;;;;10.01;33.71;95802.72;2620092;39;20226;-83
2022/12/20 12:20:22;;;;;;;3.00;2.07;;;;;;;9.15;37.09;95792.50;2618488;54;20149;-82
2022/12/20 12:22:52;;;;;;;1.93;1.83;;;;;;;10.01;39.64;95791.41;2618346;47;20164;-85